createdAt,value
2023-01-11T00:00:48.408Z,98826.06
2023-01-11T00:03:16.319Z,98852.41
2023-01-11T00:05:44.527Z,98855.66
2023-01-11T00:08:12.305Z,98853.88
2023-01-11T00:10:40.043Z,98866.13
2023-01-11T00:13:07.628Z,98877.88
2023-01-11T00:15:36.606Z,98891.53
2023-01-11T00:18:03.674Z,98882.88
2023-01-11T00:20:30.587Z,98899.41
2023-01-11T00:22:57.639Z,98905.09
2023-01-11T00:25:24.942Z,98881.19
2023-01-11T00:27:51.915Z,98876.09
2023-01-11T00:30:19.475Z,98879.66
2023-01-11T00:32:46.794Z,98874.47
2023-01-11T00:35:14.071Z,98896.75
2023-01-11T00:37:41.092Z,98894.09
2023-01-11T00:40:08.740Z,98901.19
2023-01-11T00:42:54.184Z,98905.03
2023-01-11T00:45:39.622Z,98901.34
2023-01-11T00:48:07.245Z,98918.16
2023-01-11T00:50:37.015Z,98918.69
2023-01-11T00:53:05.053Z,98912.00
2023-01-11T00:55:32.207Z,98923.03
2023-01-11T00:58:00.101Z,98919.59
2023-01-11T01:00:28.564Z,98899.97
2023-01-11T01:02:55.634Z,98913.91
2023-01-11T01:05:22.503Z,98916.53
2023-01-11T01:07:49.708Z,98913.09
2023-01-11T01:10:18.463Z,98891.13
2023-01-11T01:13:04.848Z,98871.59
2023-01-11T01:15:33.165Z,98818.06
2023-01-11T01:18:00.171Z,98917.78
2023-01-11T01:20:27.511Z,98918.31
2023-01-11T01:22:54.553Z,98907.75
2023-01-11T01:25:21.565Z,98892.75
2023-01-11T01:27:48.562Z,98891.59
2023-01-11T01:30:15.774Z,98906.34
2023-01-11T01:32:43.106Z,98895.56
2023-01-11T01:35:10.411Z,98888.03
2023-01-11T01:37:37.538Z,98910.31
2023-01-11T01:40:05.846Z,98857.28
2023-01-11T01:42:32.847Z,98917.53
2023-01-11T01:45:07.088Z,98909.91
2023-01-11T01:47:49.139Z,98921.81
2023-01-11T01:50:20.966Z,98923.28
2023-01-11T01:52:53.536Z,98925.41
2023-01-11T01:55:28.862Z,98909.63
2023-01-11T01:57:58.061Z,98922.91
2023-01-11T02:00:25.148Z,98917.00
2023-01-11T02:02:52.938Z,98939.94
2023-01-11T02:05:21.052Z,98938.53
2023-01-11T02:07:48.396Z,98943.78
2023-01-11T02:10:17.189Z,98943.19
2023-01-11T02:13:12.865Z,98938.91
2023-01-11T02:15:40.835Z,98944.28
2023-01-11T02:18:20.346Z,98943.78
2023-01-11T02:21:12.548Z,98939.13
2023-01-11T02:24:10.009Z,98943.47
2023-01-11T02:26:36.824Z,98957.88
2023-01-11T02:29:31.353Z,98952.13
2023-01-11T02:32:33.624Z,98954.09
2023-01-11T02:35:28.320Z,98951.91
2023-01-11T02:38:25.744Z,98934.25
2023-01-11T02:41:15.652Z,98923.34
2023-01-11T02:44:22.849Z,98932.84
2023-01-11T02:46:58.708Z,98923.34
2023-01-11T02:49:45.980Z,98925.53
2023-01-11T02:52:20.790Z,98922.06
2023-01-11T02:54:54.648Z,98912.84
2023-01-11T02:57:23.873Z,98940.56
2023-01-11T02:59:51.422Z,98930.19
2023-01-11T03:02:18.541Z,98940.56
2023-01-11T03:04:45.351Z,98941.75
2023-01-11T03:07:30.310Z,98961.00
2023-01-11T03:10:06.394Z,98958.28
2023-01-11T03:12:57.904Z,98960.66
2023-01-11T03:15:43.573Z,98983.59
2023-01-11T03:18:34.177Z,99011.41
2023-01-11T03:21:26.742Z,99026.22
2023-01-11T03:24:15.855Z,98999.84
2023-01-11T03:26:50.069Z,98990.91
2023-01-11T03:29:25.867Z,98980.56
2023-01-11T03:32:14.454Z,98923.69
2023-01-11T03:35:13.039Z,98984.00
2023-01-11T03:37:46.814Z,98975.59
2023-01-11T03:40:27.911Z,98989.97
2023-01-11T03:43:11.633Z,98984.28
2023-01-11T03:45:44.655Z,98987.78
2023-01-11T03:48:17.993Z,98962.47
2023-01-11T03:50:47.743Z,98980.69
2023-01-11T03:53:17.410Z,98980.88
2023-01-11T03:55:48.112Z,98965.25
2023-01-11T03:58:15.253Z,98977.22
2023-01-11T04:00:42.874Z,98976.75
2023-01-11T04:03:12.877Z,98991.47
2023-01-11T04:05:43.868Z,99013.00
2023-01-11T04:08:11.614Z,98992.16
2023-01-11T04:10:38.618Z,98997.56
2023-01-11T04:13:05.528Z,99015.28
2023-01-11T04:15:34.748Z,99033.25
2023-01-11T04:18:05.557Z,99012.81
2023-01-11T04:20:37.200Z,99020.72
2023-01-11T04:23:05.360Z,98983.56
2023-01-11T04:25:32.415Z,99012.31
2023-01-11T04:28:00.286Z,99025.03
2023-01-11T04:30:27.627Z,99025.28
2023-01-11T04:32:54.542Z,99008.91
2023-01-11T04:35:21.586Z,99012.72
2023-01-11T04:37:48.927Z,99010.53
2023-01-11T04:40:16.282Z,99005.84
2023-01-11T04:42:43.242Z,99000.09
2023-01-11T04:45:10.415Z,98998.47
2023-01-11T04:47:37.301Z,99008.59
2023-01-11T04:50:04.687Z,98998.47
2023-01-11T04:52:31.719Z,98993.81
2023-01-11T04:54:58.563Z,99006.06
2023-01-11T04:57:25.516Z,99012.06
2023-01-11T04:59:52.460Z,99017.28
2023-01-11T05:02:20.727Z,99017.56
2023-01-11T05:04:47.620Z,99008.91
2023-01-11T05:07:14.485Z,99039.69
2023-01-11T05:09:41.270Z,99021.78
2023-01-11T05:12:08.250Z,99028.56
2023-01-11T05:14:35.092Z,99048.38
2023-01-11T05:17:02.002Z,99045.66
2023-01-11T05:19:28.896Z,99055.81
2023-01-11T05:21:55.847Z,99053.84
2023-01-11T05:24:22.728Z,99051.69
2023-01-11T05:26:50.319Z,99047.66
2023-01-11T05:29:19.288Z,99069.41
2023-01-11T05:31:46.168Z,99043.31
2023-01-11T05:34:14.690Z,99049.06
2023-01-11T05:36:42.668Z,99073.72
2023-01-11T05:39:12.141Z,99042.25
2023-01-11T05:41:39.372Z,99079.75
2023-01-11T05:44:26.305Z,99071.59
2023-01-11T05:46:53.244Z,99076.50
2023-01-11T05:49:20.155Z,99058.19
2023-01-11T05:51:47.102Z,99064.19
2023-01-11T05:54:15.023Z,99035.59
2023-01-11T05:56:44.976Z,99048.63
2023-01-11T05:59:12.198Z,99073.13
2023-01-11T06:01:39.567Z,99084.16
2023-01-11T06:04:06.768Z,99101.56
2023-01-11T06:06:33.807Z,99097.75
2023-01-11T06:09:00.933Z,99096.06
2023-01-11T06:11:27.910Z,99083.56
2023-01-11T06:13:54.787Z,99072.47
2023-01-11T06:16:22.518Z,99110.47
2023-01-11T06:18:51.936Z,99013.03
2023-01-11T06:21:19.693Z,99114.50
2023-01-11T06:23:50.757Z,99120.59
2023-01-11T06:26:18.825Z,99124.38
2023-01-11T06:28:45.779Z,99124.38
2023-01-11T06:31:14.837Z,99115.69
2023-01-11T06:33:43.040Z,99102.72
2023-01-11T06:36:12.216Z,99126.84
2023-01-11T06:38:39.450Z,99126.53
2023-01-11T06:41:08.652Z,99135.47
2023-01-11T06:43:37.973Z,99138.44
2023-01-11T06:46:05.327Z,99144.38
2023-01-11T06:48:32.367Z,99129.41
2023-01-11T06:50:59.896Z,99123.47
2023-01-11T06:53:29.060Z,99141.13
2023-01-11T06:55:58.677Z,99146.59
2023-01-11T06:58:26.586Z,99138.94
2023-01-11T07:00:55.617Z,99152.06
2023-01-11T07:03:24.477Z,99166.22
2023-01-11T07:05:53.254Z,99166.75
2023-01-11T07:08:20.645Z,99150.91
2023-01-11T07:10:47.890Z,99164.75
2023-01-11T07:13:18.608Z,99167.75
2023-01-11T07:15:50.985Z,99085.00
2023-01-11T07:18:19.294Z,99155.81
2023-01-11T07:20:46.474Z,99182.75
2023-01-11T07:23:13.609Z,99175.66
2023-01-11T07:25:41.435Z,99184.63
2023-01-11T07:28:09.123Z,99179.44
2023-01-11T07:30:56.017Z,99187.59
2023-01-11T07:33:25.602Z,99193.25
2023-01-11T07:35:53.500Z,99202.22
2023-01-11T07:38:20.472Z,99198.13
2023-01-11T07:40:47.467Z,99222.09
2023-01-11T07:43:15.211Z,99218.50
2023-01-11T07:45:49.814Z,99222.91
2023-01-11T07:48:26.322Z,99230.28
2023-01-11T07:50:54.097Z,99222.03
2023-01-11T07:53:21.460Z,99233.16
2023-01-11T07:55:48.413Z,99231.47
2023-01-11T07:58:15.719Z,99233.28
2023-01-11T08:00:42.704Z,99231.06
2023-01-11T08:03:10.377Z,99231.66
2023-01-11T08:05:37.659Z,99248.38
2023-01-11T08:08:05.686Z,99239.88
2023-01-11T08:10:32.878Z,99226.06
2023-01-11T08:13:18.677Z,99244.78
2023-01-11T08:15:45.686Z,99242.31
2023-01-11T08:18:13.119Z,99244.41
2023-01-11T08:20:40.874Z,99250.41
2023-01-11T08:23:10.084Z,99254.88
2023-01-11T08:25:38.012Z,99250.00
2023-01-11T08:28:06.631Z,99179.44
2023-01-11T08:30:33.862Z,99273.69
2023-01-11T08:33:06.939Z,99275.59
2023-01-11T08:35:38.897Z,99288.69
2023-01-11T08:38:06.094Z,99284.09
2023-01-11T08:40:33.046Z,99289.56
2023-01-11T08:42:59.897Z,99284.69
2023-01-11T08:45:27.833Z,99301.31
2023-01-11T08:47:55.371Z,99306.50
2023-01-11T08:50:22.854Z,99291.78
2023-01-11T08:52:51.361Z,99288.47
2023-01-11T08:55:19.792Z,99277.59
2023-01-11T08:57:47.290Z,99296.09
2023-01-11T09:00:18.159Z,99287.94
2023-01-11T09:02:45.919Z,99295.84
2023-01-11T09:05:13.029Z,99299.63
2023-01-11T09:07:40.089Z,99308.88
2023-01-11T09:10:07.517Z,99306.69
2023-01-11T09:12:34.581Z,99276.47
2023-01-11T09:15:01.564Z,99292.25
2023-01-11T09:17:28.512Z,99283.75
2023-01-11T09:19:55.459Z,99284.56
2023-01-11T09:22:22.368Z,99292.47
2023-01-11T09:24:49.413Z,99297.19
2023-01-11T09:27:16.812Z,99277.00
2023-01-11T09:29:44.031Z,99298.53
2023-01-11T09:32:10.916Z,99300.44
2023-01-11T09:34:38.048Z,99315.19
2023-01-11T09:37:06.998Z,99301.63
2023-01-11T09:39:35.396Z,99309.47
2023-01-11T09:42:32.595Z,99313.53
2023-01-11T09:45:11.561Z,99323.69
2023-01-11T09:47:47.385Z,99327.28
2023-01-11T09:50:17.384Z,99321.88
2023-01-11T09:52:52.995Z,99313.72
2023-01-11T09:55:31.518Z,99290.84
2023-01-11T09:58:07.622Z,99317.44
2023-01-11T10:01:12.512Z,99323.38
2023-01-11T10:03:52.249Z,99324.25
2023-01-11T10:06:39.592Z,99324.59
2023-01-11T10:18:29.211Z,99314.72
2023-01-11T10:19:24.850Z,99331.59
2023-01-11T10:21:55.306Z,99312.72
2023-01-11T10:24:46.385Z,99314.72
2023-01-11T10:27:59.076Z,99329.97
2023-01-11T10:31:16.483Z,99302.03
2023-01-11T10:34:06.004Z,99328.44
2023-01-11T10:37:03.561Z,99308.38
2023-01-11T10:39:56.657Z,99321.47
2023-01-11T10:42:29.132Z,99342.66
2023-01-11T10:45:14.815Z,99337.25
2023-01-11T10:48:17.148Z,99335.03
2023-01-11T10:51:09.729Z,99321.47
2023-01-11T10:53:48.829Z,99331.00
2023-01-11T10:56:42.825Z,99333.22
2023-01-11T10:59:46.839Z,99325.78
2023-01-11T11:02:49.229Z,99325.31
2023-01-11T11:05:25.381Z,99323.66
2023-01-11T11:07:58.066Z,99326.63
2023-01-11T11:10:32.974Z,99311.91
2023-01-11T11:13:20.570Z,99323.16
2023-01-11T11:16:01.153Z,99343.63
2023-01-11T11:18:28.339Z,99310.53
2023-01-11T11:21:10.455Z,99330.00
2023-01-11T11:23:38.792Z,99335.19
2023-01-11T11:26:07.758Z,99319.03
2023-01-11T11:28:34.733Z,99330.88
2023-01-11T11:31:04.699Z,99326.00
2023-01-11T11:33:39.635Z,99332.84
2023-01-11T11:36:11.677Z,99343.63
2023-01-11T11:38:41.698Z,99333.31
2023-01-11T11:41:17.272Z,99337.16
2023-01-11T11:43:48.512Z,99339.34
2023-01-11T11:46:19.453Z,99348.09
2023-01-11T11:49:08.572Z,99346.22
2023-01-11T11:51:36.099Z,99334.19
2023-01-11T11:54:03.343Z,99327.91
2023-01-11T11:56:35.642Z,99336.09
2023-01-11T11:59:09.302Z,99333.66
2023-01-11T12:01:40.091Z,99303.47
2023-01-11T12:04:22.451Z,99338.88
2023-01-11T12:07:09.126Z,99325.16
2023-01-11T12:09:36.950Z,99298.03
2023-01-11T12:12:04.575Z,99336.44
2023-01-11T12:14:35.208Z,99337.25
2023-01-11T12:17:25.139Z,99333.41
2023-01-11T12:19:51.987Z,99321.50
2023-01-11T12:22:23.028Z,99333.97
2023-01-11T12:25:08.183Z,99339.13
2023-01-11T12:27:47.000Z,99335.28
2023-01-11T12:30:35.874Z,99331.44
2023-01-11T12:33:06.164Z,99323.78
2023-01-11T12:35:41.308Z,99259.72
2023-01-11T12:38:40.158Z,99326.22
2023-01-11T12:41:47.650Z,99333.03
2023-01-11T12:44:26.666Z,99327.50
2023-01-11T12:47:20.867Z,99319.03
2023-01-11T12:49:57.520Z,99317.97
2023-01-11T12:52:29.105Z,99321.19
2023-01-11T12:55:25.718Z,99329.63
2023-01-11T12:58:14.264Z,99298.41
2023-01-11T13:01:07.047Z,99306.31
2023-01-11T13:03:50.123Z,99349.09
2023-01-11T13:06:31.911Z,99346.94
2023-01-11T13:09:21.206Z,99345.31
2023-01-11T13:12:27.201Z,99350.44
2023-01-11T13:15:13.094Z,99366.03
2023-01-11T13:17:40.011Z,99370.97
2023-01-11T13:20:15.926Z,99368.53
2023-01-11T13:22:48.729Z,99380.81
2023-01-11T13:25:32.098Z,99368.75
2023-01-11T13:28:02.872Z,99334.84
2023-01-11T13:30:31.937Z,99382.47
2023-01-11T13:33:10.974Z,99392.31
2023-01-11T13:35:50.110Z,99386.94
2023-01-11T13:38:43.504Z,99401.38
2023-01-11T13:41:13.625Z,99398.91
2023-01-11T13:43:56.837Z,99396.19
2023-01-11T13:46:48.807Z,99398.97
2023-01-11T13:49:37.291Z,99400.38
2023-01-11T13:52:16.520Z,99403.72
2023-01-11T13:55:00.974Z,99407.53
2023-01-11T13:58:12.624Z,99386.59
2023-01-11T14:00:49.778Z,99399.72
2023-01-11T14:03:31.169Z,99422.06
2023-01-11T14:06:03.814Z,99415.25
2023-01-11T14:08:52.054Z,99416.13
2023-01-11T14:11:37.631Z,99410.41
2023-01-11T14:14:13.620Z,99424.88
2023-01-11T14:17:12.936Z,99410.41
2023-01-11T14:19:49.396Z,99401.44
2023-01-11T14:22:19.130Z,99404.94
2023-01-11T14:24:57.537Z,99399.81
2023-01-11T14:27:30.269Z,99415.59
2023-01-11T14:30:18.656Z,99423.53
2023-01-11T14:32:45.756Z,99441.56
2023-01-11T14:35:21.613Z,99441.88
2023-01-11T14:37:57.465Z,99436.66
2023-01-11T14:40:49.010Z,99449.75
2023-01-11T14:43:33.775Z,99444.06
2023-01-11T14:46:28.204Z,99447.03
2023-01-11T14:49:13.205Z,99441.91
2023-01-11T14:52:00.328Z,99448.72
2023-01-11T14:54:40.390Z,99439.00
2023-01-11T14:57:43.584Z,99444.47
2023-01-11T15:00:19.645Z,99470.84
2023-01-11T15:03:07.172Z,99474.69
2023-01-11T15:05:38.298Z,99468.41
2023-01-11T15:08:14.235Z,99479.34
2023-01-11T15:11:02.855Z,99483.75
2023-01-11T15:13:37.052Z,99488.63
2023-01-11T15:16:49.747Z,99493.88
2023-01-11T15:19:43.998Z,99498.50
2023-01-11T15:22:25.371Z,99474.22
2023-01-11T15:24:57.460Z,99491.13
2023-01-11T15:27:33.633Z,99498.53
2023-01-11T15:30:01.292Z,99484.63
2023-01-11T15:32:32.181Z,99488.41
2023-01-11T15:35:32.001Z,99472.03
2023-01-11T15:38:09.053Z,99464.13
2023-01-11T15:40:46.577Z,99478.31
2023-01-11T15:43:29.687Z,99477.69
2023-01-11T15:46:37.460Z,99473.56
2023-01-11T15:49:16.768Z,99497.06
2023-01-11T15:52:35.625Z,99496.25
2023-01-11T15:55:24.230Z,99491.03
2023-01-11T15:58:18.328Z,99483.13
2023-01-11T16:01:02.412Z,99489.97
2023-01-11T16:04:08.088Z,99497.88
2023-01-11T16:06:50.479Z,99494.59
2023-01-11T16:09:23.338Z,99495.16
2023-01-11T16:12:12.566Z,99494.63
2023-01-11T16:15:12.006Z,99491.91
2023-01-11T16:17:44.282Z,99495.47
2023-01-11T16:20:20.140Z,99508.53
2023-01-11T16:22:52.824Z,99509.38
2023-01-11T16:25:21.601Z,99494.97
2023-01-11T16:27:53.919Z,99515.63
2023-01-11T16:30:21.912Z,99510.25
2023-01-11T16:32:48.846Z,99512.66
2023-01-11T16:35:24.342Z,99522.75
2023-01-11T16:37:58.781Z,99517.84
2023-01-11T16:40:42.314Z,99507.72
2023-01-11T16:43:38.629Z,99515.63
2023-01-11T16:46:06.150Z,99524.94
2023-01-11T16:48:33.073Z,99521.91
2023-01-11T16:51:17.426Z,99515.94
2023-01-11T16:53:55.358Z,99524.94
2023-01-11T16:56:24.072Z,99441.88
2023-01-11T16:59:21.616Z,99493.09
2023-01-11T17:02:00.557Z,99534.78
2023-01-11T17:04:30.069Z,99533.16
2023-01-11T17:07:20.557Z,99536.16
2023-01-11T17:09:47.509Z,99525.25
2023-01-11T17:12:21.630Z,99525.00
2023-01-11T17:14:51.525Z,99531.50
2023-01-11T17:17:19.889Z,99530.75
2023-01-11T17:19:50.951Z,99512.19
2023-01-11T17:22:33.810Z,99531.03
2023-01-11T17:25:03.839Z,99517.38
2023-01-11T17:27:45.109Z,99542.97
2023-01-11T17:30:24.808Z,99550.91
2023-01-11T17:32:54.448Z,99549.00
2023-01-11T17:35:24.059Z,99548.50
2023-01-11T17:37:54.873Z,99540.03
2023-01-11T17:40:26.575Z,99541.91
2023-01-11T17:43:16.203Z,99537.03
2023-01-11T17:46:14.310Z,99541.41
2023-01-11T17:49:00.087Z,99461.56
2023-01-11T17:51:33.826Z,99540.81
2023-01-11T17:54:02.099Z,99540.25
2023-01-11T17:56:36.209Z,99542.44
2023-01-11T17:59:24.543Z,99546.03
2023-01-11T18:02:05.790Z,99545.75
2023-01-11T18:04:33.410Z,99560.22
2023-01-11T18:07:19.186Z,99558.59
2023-01-11T18:09:57.458Z,99561.59
2023-01-11T18:12:39.307Z,99561.88
2023-01-11T18:15:07.460Z,99555.59
2023-01-11T18:17:42.203Z,99563.25
2023-01-11T18:20:16.496Z,99570.63
2023-01-11T18:23:25.044Z,99571.69
2023-01-11T18:26:25.478Z,99573.34
2023-01-11T18:28:52.459Z,99574.72
2023-01-11T18:31:19.493Z,99556.16
2023-01-11T18:33:46.481Z,99578.00
2023-01-11T18:36:21.824Z,99589.44
2023-01-11T18:38:49.484Z,99584.81
2023-01-11T18:41:37.870Z,99582.34
2023-01-11T18:44:05.575Z,99593.22
2023-01-11T18:46:32.545Z,99586.13
2023-01-11T18:49:03.377Z,99591.88
2023-01-11T18:51:41.991Z,99586.19
2023-01-11T18:54:35.798Z,99601.47
2023-01-11T18:57:05.821Z,99575.81
2023-01-11T18:59:33.277Z,99589.44
2023-01-11T19:02:35.578Z,99587.00
2023-01-11T19:05:07.177Z,99589.44
2023-01-11T19:07:35.244Z,99594.38
2023-01-11T19:10:02.697Z,99584.56
2023-01-11T19:12:35.400Z,99582.09
2023-01-11T19:15:05.769Z,99589.19
2023-01-11T19:17:34.284Z,99583.19
2023-01-11T19:20:01.900Z,99597.38
2023-01-11T19:22:32.845Z,99598.47
2023-01-11T19:25:04.761Z,99597.66
2023-01-11T19:27:33.552Z,99606.66
2023-01-11T19:30:01.536Z,99584.84
2023-01-11T19:32:29.455Z,99596.00
2023-01-11T19:35:17.831Z,99585.13
2023-01-11T19:37:45.865Z,99602.88
2023-01-11T19:40:37.079Z,99591.69
2023-01-11T19:43:06.134Z,99578.06
2023-01-11T19:45:38.420Z,99600.97
2023-01-11T19:48:07.439Z,99582.72
2023-01-11T19:50:35.287Z,99604.53
2023-01-11T19:53:03.378Z,99608.63
2023-01-11T19:55:32.024Z,99609.19
2023-01-11T19:58:00.194Z,99600.72
2023-01-11T20:00:28.127Z,99603.97
2023-01-11T20:02:55.379Z,99611.34
2023-01-11T20:05:23.563Z,99615.44
2023-01-11T20:07:51.209Z,99606.97
2023-01-11T20:10:18.864Z,99602.06
2023-01-11T20:12:46.790Z,99595.53
2023-01-11T20:15:14.502Z,99604.25
2023-01-11T20:17:41.908Z,99599.38
2023-01-11T20:20:11.115Z,99603.75
2023-01-11T20:22:39.052Z,99613.03
2023-01-11T20:25:06.894Z,99616.56
2023-01-11T20:27:34.375Z,99606.19
2023-01-11T20:30:01.573Z,99620.09
2023-01-11T20:32:40.866Z,99629.91
2023-01-11T20:35:09.951Z,99626.09
2023-01-11T20:37:37.552Z,99639.19
2023-01-11T20:40:05.679Z,99649.00
2023-01-11T20:42:33.693Z,99654.47
2023-01-11T20:45:02.046Z,99655.00
2023-01-11T20:47:29.986Z,99652.28
2023-01-11T20:49:57.638Z,99665.38
2023-01-11T20:52:25.355Z,99649.81
2023-01-11T20:54:53.210Z,99652.00
2023-01-11T20:57:20.302Z,99638.94
2023-01-11T20:59:47.845Z,99629.91
2023-01-11T21:02:16.194Z,99644.63
2023-01-11T21:04:43.924Z,99642.19
2023-01-11T21:07:11.097Z,99650.63
2023-01-11T21:09:38.645Z,99642.97
2023-01-11T21:12:07.758Z,99620.06
2023-01-11T21:14:36.697Z,99636.69
2023-01-11T21:17:04.012Z,99628.50
2023-01-11T21:19:31.875Z,99623.59
2023-01-11T21:21:59.219Z,99624.41
2023-01-11T21:24:26.785Z,99627.41
2023-01-11T21:26:54.102Z,99638.84
2023-01-11T21:29:22.111Z,99642.41
2023-01-11T21:31:49.295Z,99621.63
2023-01-11T21:34:16.414Z,99662.03
2023-01-11T21:36:43.954Z,99663.13
2023-01-11T21:39:14.165Z,99655.19
2023-01-11T21:41:58.476Z,99662.00
2023-01-11T21:44:34.100Z,99664.75
2023-01-11T21:47:03.864Z,99644.53
2023-01-11T21:49:33.913Z,99658.19
2023-01-11T21:52:00.940Z,99665.56
2023-01-11T21:54:28.002Z,99669.09
2023-01-11T21:56:55.143Z,99679.16
2023-01-11T21:59:22.589Z,99675.59
2023-01-11T22:01:49.761Z,99676.91
2023-01-11T22:04:21.658Z,99683.19
2023-01-11T22:06:55.671Z,99688.09
2023-01-11T22:09:26.965Z,99692.50
2023-01-11T22:11:54.032Z,99699.06
2023-01-11T22:14:22.616Z,99696.25
2023-01-11T22:16:50.450Z,99676.88
2023-01-11T22:19:17.497Z,99683.88
2023-01-11T22:21:44.570Z,99684.06
2023-01-11T22:24:12.227Z,99697.47
2023-01-11T22:26:39.873Z,99694.50
2023-01-11T22:29:17.020Z,99632.69
2023-01-11T22:32:01.504Z,99705.88
2023-01-11T22:34:28.569Z,99708.09
2023-01-11T22:36:55.835Z,99696.38
2023-01-11T22:39:24.158Z,99705.13
2023-01-11T22:41:51.419Z,99696.09
2023-01-11T22:44:18.543Z,99691.69
2023-01-11T22:46:48.504Z,99684.53
2023-01-11T22:49:17.404Z,99680.50
2023-01-11T22:51:44.608Z,99676.34
2023-01-11T22:54:12.433Z,99674.66
2023-01-11T22:56:39.501Z,99687.75
2023-01-11T22:59:06.741Z,99687.75
2023-01-11T23:01:36.365Z,99631.50
2023-01-11T23:04:04.058Z,99652.88
2023-01-11T23:06:34.242Z,99661.88
2023-01-11T23:09:01.462Z,99652.56
2023-01-11T23:12:05.971Z,99655.56
2023-01-11T23:14:33.838Z,99640.75
2023-01-11T23:17:06.529Z,99627.63
2023-01-11T23:19:35.710Z,99640.72
2023-01-11T23:22:03.413Z,99637.19
2023-01-11T23:24:30.637Z,99628.56
2023-01-11T23:26:58.058Z,99623.84
2023-01-11T23:29:25.528Z,99630.06
2023-01-11T23:31:52.862Z,99628.97
2023-01-11T23:34:19.769Z,99635.81
2023-01-11T23:36:46.745Z,99653.25
2023-01-11T23:39:16.445Z,99624.66
2023-01-11T23:42:01.849Z,99662.63
2023-01-11T23:44:29.425Z,99693.31
2023-01-11T23:47:14.792Z,99688.38
2023-01-11T23:49:43.716Z,99696.06
2023-01-11T23:52:10.949Z,99693.66
2023-01-11T23:54:38.029Z,99693.00
2023-01-11T23:57:05.251Z,99712.19
2023-01-11T23:59:32.295Z,99716.84
